sensor_id;sensor_type;location;lat;lon;timestamp;P1;durP1;ratioP1;P2;durP2;ratioP2
40993;SDS011;26722;43.212;27.932;2023-07-31T00:00:54;6.15;;;3.30;;
40993;SDS011;26722;43.212;27.932;2023-07-31T00:03:19;4.47;;;2.97;;
40993;SDS011;26722;43.212;27.932;2023-07-31T00:05:45;9.43;;;3.35;;
40993;SDS011;26722;43.212;27.932;2023-07-31T00:08:10;9.15;;;3.40;;
40993;SDS011;26722;43.212;27.932;2023-07-31T00:10:36;8.35;;;3.50;;
40993;SDS011;26722;43.212;27.932;2023-07-31T00:13:01;7.78;;;3.22;;
40993;SDS011;26722;43.212;27.932;2023-07-31T00:15:27;6.18;;;2.92;;
40993;SDS011;26722;43.212;27.932;2023-07-31T00:17:52;13.40;;;3.50;;
40993;SDS011;26722;43.212;27.932;2023-07-31T00:20:18;6.22;;;3.33;;
40993;SDS011;26722;43.212;27.932;2023-07-31T00:22:43;10.15;;;3.25;;
40993;SDS011;26722;43.212;27.932;2023-07-31T00:25:09;8.20;;;3.42;;
40993;SDS011;26722;43.212;27.932;2023-07-31T00:27:34;5.57;;;3.30;;
40993;SDS011;26722;43.212;27.932;2023-07-31T00:29:59;6.38;;;3.15;;
40993;SDS011;26722;43.212;27.932;2023-07-31T00:32:25;10.15;;;3.47;;
40993;SDS011;26722;43.212;27.932;2023-07-31T00:34:50;9.52;;;3.90;;
40993;SDS011;26722;43.212;27.932;2023-07-31T00:37:16;6.28;;;3.40;;
40993;SDS011;26722;43.212;27.932;2023-07-31T00:39:41;10.52;;;3.40;;
40993;SDS011;26722;43.212;27.932;2023-07-31T00:42:07;6.40;;;3.00;;
40993;SDS011;26722;43.212;27.932;2023-07-31T00:44:33;13.27;;;3.83;;
40993;SDS011;26722;43.212;27.932;2023-07-31T00:46:58;7.43;;;3.75;;
40993;SDS011;26722;43.212;27.932;2023-07-31T00:49:25;5.95;;;3.50;;
40993;SDS011;26722;43.212;27.932;2023-07-31T00:51:51;6.70;;;3.40;;
40993;SDS011;26722;43.212;27.932;2023-07-31T00:54:17;15.75;;;3.80;;
40993;SDS011;26722;43.212;27.932;2023-07-31T00:56:44;7.38;;;3.25;;
40993;SDS011;26722;43.212;27.932;2023-07-31T00:59:11;4.68;;;3.08;;
40993;SDS011;26722;43.212;27.932;2023-07-31T01:01:36;6.72;;;3.78;;
40993;SDS011;26722;43.212;27.932;2023-07-31T01:04:02;6.88;;;3.60;;
40993;SDS011;26722;43.212;27.932;2023-07-31T01:09:14;7.07;;;3.88;;
40993;SDS011;26722;43.212;27.932;2023-07-31T01:11:53;6.50;;;3.92;;
40993;SDS011;26722;43.212;27.932;2023-07-31T01:14:22;7.15;;;4.00;;
40993;SDS011;26722;43.212;27.932;2023-07-31T01:16:47;9.35;;;4.18;;
40993;SDS011;26722;43.212;27.932;2023-07-31T01:19:14;8.85;;;3.95;;
40993;SDS011;26722;43.212;27.932;2023-07-31T01:21:56;9.07;;;3.88;;
40993;SDS011;26722;43.212;27.932;2023-07-31T01:27:28;9.63;;;3.72;;
40993;SDS011;26722;43.212;27.932;2023-07-31T01:30:00;8.88;;;4.00;;
40993;SDS011;26722;43.212;27.932;2023-07-31T01:32:35;13.15;;;4.10;;
40993;SDS011;26722;43.212;27.932;2023-07-31T01:35:04;8.27;;;4.00;;
40993;SDS011;26722;43.212;27.932;2023-07-31T01:37:30;7.78;;;4.10;;
40993;SDS011;26722;43.212;27.932;2023-07-31T01:39:56;6.85;;;3.70;;
40993;SDS011;26722;43.212;27.932;2023-07-31T01:42:21;5.45;;;3.65;;
40993;SDS011;26722;43.212;27.932;2023-07-31T01:44:47;8.05;;;3.83;;
40993;SDS011;26722;43.212;27.932;2023-07-31T01:47:12;4.85;;;3.22;;
40993;SDS011;26722;43.212;27.932;2023-07-31T01:49:38;6.25;;;3.85;;
40993;SDS011;26722;43.212;27.932;2023-07-31T01:52:03;7.93;;;3.80;;
40993;SDS011;26722;43.212;27.932;2023-07-31T01:54:29;5.05;;;3.83;;
40993;SDS011;26722;43.212;27.932;2023-07-31T01:56:54;6.72;;;3.72;;
40993;SDS011;26722;43.212;27.932;2023-07-31T01:59:20;6.97;;;3.30;;
40993;SDS011;26722;43.212;27.932;2023-07-31T02:01:45;5.70;;;3.22;;
40993;SDS011;26722;43.212;27.932;2023-07-31T02:04:11;6.82;;;3.45;;
40993;SDS011;26722;43.212;27.932;2023-07-31T02:06:36;4.68;;;3.35;;
40993;SDS011;26722;43.212;27.932;2023-07-31T02:09:02;6.15;;;4.07;;
40993;SDS011;26722;43.212;27.932;2023-07-31T02:11:28;9.98;;;4.60;;
40993;SDS011;26722;43.212;27.932;2023-07-31T02:13:54;7.03;;;5.07;;
40993;SDS011;26722;43.212;27.932;2023-07-31T02:16:19;8.70;;;5.40;;
40993;SDS011;26722;43.212;27.932;2023-07-31T02:18:44;12.70;;;5.70;;
40993;SDS011;26722;43.212;27.932;2023-07-31T02:21:10;9.93;;;5.63;;
40993;SDS011;26722;43.212;27.932;2023-07-31T02:23:35;12.77;;;5.47;;
40993;SDS011;26722;43.212;27.932;2023-07-31T02:26:01;8.32;;;5.43;;
40993;SDS011;26722;43.212;27.932;2023-07-31T02:28:26;9.77;;;5.50;;
40993;SDS011;26722;43.212;27.932;2023-07-31T02:30:51;8.27;;;5.57;;
40993;SDS011;26722;43.212;27.932;2023-07-31T02:33:17;12.55;;;5.05;;
40993;SDS011;26722;43.212;27.932;2023-07-31T02:35:42;14.73;;;5.40;;
40993;SDS011;26722;43.212;27.932;2023-07-31T02:38:08;11.23;;;5.68;;
40993;SDS011;26722;43.212;27.932;2023-07-31T02:40:33;11.38;;;5.07;;
40993;SDS011;26722;43.212;27.932;2023-07-31T02:42:59;10.27;;;5.15;;
40993;SDS011;26722;43.212;27.932;2023-07-31T02:45:24;14.93;;;4.90;;
40993;SDS011;26722;43.212;27.932;2023-07-31T02:47:50;8.68;;;4.30;;
40993;SDS011;26722;43.212;27.932;2023-07-31T02:50:15;8.23;;;4.43;;
40993;SDS011;26722;43.212;27.932;2023-07-31T02:52:41;6.93;;;3.67;;
40993;SDS011;26722;43.212;27.932;2023-07-31T02:55:06;8.80;;;3.40;;
40993;SDS011;26722;43.212;27.932;2023-07-31T02:57:32;14.40;;;4.43;;
40993;SDS011;26722;43.212;27.932;2023-07-31T02:59:57;6.43;;;4.10;;
40993;SDS011;26722;43.212;27.932;2023-07-31T03:02:23;8.18;;;4.03;;
40993;SDS011;26722;43.212;27.932;2023-07-31T03:04:48;9.60;;;4.07;;
40993;SDS011;26722;43.212;27.932;2023-07-31T03:07:14;9.27;;;3.60;;
40993;SDS011;26722;43.212;27.932;2023-07-31T03:09:39;6.22;;;3.33;;
40993;SDS011;26722;43.212;27.932;2023-07-31T03:12:05;7.43;;;4.00;;
40993;SDS011;26722;43.212;27.932;2023-07-31T03:14:30;8.82;;;4.13;;
40993;SDS011;26722;43.212;27.932;2023-07-31T03:16:56;8.65;;;3.80;;
40993;SDS011;26722;43.212;27.932;2023-07-31T03:19:21;7.55;;;5.00;;
40993;SDS011;26722;43.212;27.932;2023-07-31T03:21:47;10.07;;;5.43;;
40993;SDS011;26722;43.212;27.932;2023-07-31T03:24:12;14.20;;;4.65;;
40993;SDS011;26722;43.212;27.932;2023-07-31T03:26:38;11.95;;;4.82;;
40993;SDS011;26722;43.212;27.932;2023-07-31T03:29:06;9.88;;;4.68;;
40993;SDS011;26722;43.212;27.932;2023-07-31T03:31:32;9.38;;;4.10;;
40993;SDS011;26722;43.212;27.932;2023-07-31T03:33:57;9.02;;;4.43;;
40993;SDS011;26722;43.212;27.932;2023-07-31T03:36:22;10.32;;;4.30;;
40993;SDS011;26722;43.212;27.932;2023-07-31T03:38:48;11.27;;;4.07;;
40993;SDS011;26722;43.212;27.932;2023-07-31T03:41:13;8.95;;;3.90;;
40993;SDS011;26722;43.212;27.932;2023-07-31T03:43:39;9.73;;;4.57;;
40993;SDS011;26722;43.212;27.932;2023-07-31T03:46:04;12.90;;;3.95;;
40993;SDS011;26722;43.212;27.932;2023-07-31T03:48:30;10.02;;;4.45;;
40993;SDS011;26722;43.212;27.932;2023-07-31T03:50:55;12.07;;;3.85;;
40993;SDS011;26722;43.212;27.932;2023-07-31T03:53:21;11.52;;;3.78;;
40993;SDS011;26722;43.212;27.932;2023-07-31T03:55:46;8.07;;;3.38;;
40993;SDS011;26722;43.212;27.932;2023-07-31T03:58:12;10.73;;;4.20;;
40993;SDS011;26722;43.212;27.932;2023-07-31T04:00:37;18.27;;;5.60;;
40993;SDS011;26722;43.212;27.932;2023-07-31T04:03:04;18.85;;;8.48;;
40993;SDS011;26722;43.212;27.932;2023-07-31T04:05:31;24.83;;;8.95;;
40993;SDS011;26722;43.212;27.932;2023-07-31T04:07:57;20.65;;;9.13;;
40993;SDS011;26722;43.212;27.932;2023-07-31T04:10:22;18.80;;;9.15;;
40993;SDS011;26722;43.212;27.932;2023-07-31T04:12:48;17.90;;;9.07;;
40993;SDS011;26722;43.212;27.932;2023-07-31T04:15:13;20.95;;;10.10;;
40993;SDS011;26722;43.212;27.932;2023-07-31T04:17:39;17.42;;;8.90;;
40993;SDS011;26722;43.212;27.932;2023-07-31T04:20:04;22.08;;;8.25;;
40993;SDS011;26722;43.212;27.932;2023-07-31T04:22:30;14.65;;;7.45;;
40993;SDS011;26722;43.212;27.932;2023-07-31T04:24:56;21.23;;;7.65;;
40993;SDS011;26722;43.212;27.932;2023-07-31T04:27:21;15.60;;;7.20;;
40993;SDS011;26722;43.212;27.932;2023-07-31T04:29:47;20.50;;;6.80;;
40993;SDS011;26722;43.212;27.932;2023-07-31T04:32:12;14.63;;;6.57;;
40993;SDS011;26722;43.212;27.932;2023-07-31T04:34:40;20.45;;;6.45;;
40993;SDS011;26722;43.212;27.932;2023-07-31T04:37:06;16.52;;;5.90;;
40993;SDS011;26722;43.212;27.932;2023-07-31T04:39:31;15.07;;;5.60;;
40993;SDS011;26722;43.212;27.932;2023-07-31T04:41:57;10.75;;;4.82;;
40993;SDS011;26722;43.212;27.932;2023-07-31T04:44:22;19.92;;;5.80;;
40993;SDS011;26722;43.212;27.932;2023-07-31T04:46:47;12.38;;;5.22;;
40993;SDS011;26722;43.212;27.932;2023-07-31T04:49:13;14.18;;;5.03;;
40993;SDS011;26722;43.212;27.932;2023-07-31T04:51:38;11.20;;;5.50;;
40993;SDS011;26722;43.212;27.932;2023-07-31T04:54:04;13.82;;;5.03;;
40993;SDS011;26722;43.212;27.932;2023-07-31T04:56:29;13.43;;;5.47;;
40993;SDS011;26722;43.212;27.932;2023-07-31T04:58:54;14.52;;;5.13;;
40993;SDS011;26722;43.212;27.932;2023-07-31T05:01:20;9.63;;;4.75;;
40993;SDS011;26722;43.212;27.932;2023-07-31T05:03:45;12.70;;;5.00;;
40993;SDS011;26722;43.212;27.932;2023-07-31T05:06:11;14.32;;;5.22;;
40993;SDS011;26722;43.212;27.932;2023-07-31T05:08:37;13.60;;;4.85;;
40993;SDS011;26722;43.212;27.932;2023-07-31T05:11:02;17.23;;;4.75;;
40993;SDS011;26722;43.212;27.932;2023-07-31T05:13:28;15.38;;;6.57;;
40993;SDS011;26722;43.212;27.932;2023-07-31T05:15:53;15.20;;;4.43;;
40993;SDS011;26722;43.212;27.932;2023-07-31T05:18:19;12.20;;;4.03;;
40993;SDS011;26722;43.212;27.932;2023-07-31T05:20:44;8.70;;;3.80;;
40993;SDS011;26722;43.212;27.932;2023-07-31T05:23:09;10.00;;;3.47;;
40993;SDS011;26722;43.212;27.932;2023-07-31T05:25:35;7.90;;;3.28;;
40993;SDS011;26722;43.212;27.932;2023-07-31T05:28:00;7.47;;;3.08;;
40993;SDS011;26722;43.212;27.932;2023-07-31T05:30:26;13.75;;;3.72;;
40993;SDS011;26722;43.212;27.932;2023-07-31T05:32:52;7.20;;;3.42;;
40993;SDS011;26722;43.212;27.932;2023-07-31T05:35:17;8.35;;;3.85;;
40993;SDS011;26722;43.212;27.932;2023-07-31T05:37:42;10.27;;;3.67;;
40993;SDS011;26722;43.212;27.932;2023-07-31T05:40:08;9.35;;;3.80;;
40993;SDS011;26722;43.212;27.932;2023-07-31T05:42:34;13.00;;;3.92;;
40993;SDS011;26722;43.212;27.932;2023-07-31T05:45:01;14.32;;;3.88;;
40993;SDS011;26722;43.212;27.932;2023-07-31T05:47:27;8.68;;;4.18;;
40993;SDS011;26722;43.212;27.932;2023-07-31T05:49:52;23.15;;;5.15;;
40993;SDS011;26722;43.212;27.932;2023-07-31T05:52:18;11.73;;;3.97;;
40993;SDS011;26722;43.212;27.932;2023-07-31T05:54:44;6.30;;;3.15;;
40993;SDS011;26722;43.212;27.932;2023-07-31T05:57:11;8.60;;;3.47;;
40993;SDS011;26722;43.212;27.932;2023-07-31T05:59:36;13.45;;;3.38;;
40993;SDS011;26722;43.212;27.932;2023-07-31T06:02:02;13.45;;;3.00;;
40993;SDS011;26722;43.212;27.932;2023-07-31T06:04:27;5.25;;;2.53;;
40993;SDS011;26722;43.212;27.932;2023-07-31T06:06:53;4.30;;;2.50;;
40993;SDS011;26722;43.212;27.932;2023-07-31T06:09:18;8.52;;;3.15;;
40993;SDS011;26722;43.212;27.932;2023-07-31T06:11:45;7.85;;;2.90;;
40993;SDS011;26722;43.212;27.932;2023-07-31T06:14:11;13.82;;;3.03;;
40993;SDS011;26722;43.212;27.932;2023-07-31T06:16:36;11.35;;;3.05;;
40993;SDS011;26722;43.212;27.932;2023-07-31T06:19:02;10.73;;;3.00;;
40993;SDS011;26722;43.212;27.932;2023-07-31T06:21:27;8.98;;;3.20;;
40993;SDS011;26722;43.212;27.932;2023-07-31T06:23:53;13.32;;;3.53;;
40993;SDS011;26722;43.212;27.932;2023-07-31T06:26:18;14.65;;;3.78;;
40993;SDS011;26722;43.212;27.932;2023-07-31T06:28:44;7.38;;;3.38;;
40993;SDS011;26722;43.212;27.932;2023-07-31T06:31:09;19.92;;;4.50;;
40993;SDS011;26722;43.212;27.932;2023-07-31T06:33:35;12.85;;;4.00;;
40993;SDS011;26722;43.212;27.932;2023-07-31T06:36:00;10.40;;;4.30;;
40993;SDS011;26722;43.212;27.932;2023-07-31T06:38:26;12.13;;;4.20;;
40993;SDS011;26722;43.212;27.932;2023-07-31T06:40:52;11.45;;;4.22;;
40993;SDS011;26722;43.212;27.932;2023-07-31T06:43:18;26.60;;;4.82;;
40993;SDS011;26722;43.212;27.932;2023-07-31T06:45:44;23.23;;;5.40;;
40993;SDS011;26722;43.212;27.932;2023-07-31T06:48:10;14.77;;;5.22;;
40993;SDS011;26722;43.212;27.932;2023-07-31T06:50:36;10.68;;;4.90;;
40993;SDS011;26722;43.212;27.932;2023-07-31T06:53:02;14.23;;;4.80;;
40993;SDS011;26722;43.212;27.932;2023-07-31T06:55:27;10.50;;;5.75;;
40993;SDS011;26722;43.212;27.932;2023-07-31T06:57:54;14.50;;;5.43;;
40993;SDS011;26722;43.212;27.932;2023-07-31T07:00:21;12.02;;;5.60;;
40993;SDS011;26722;43.212;27.932;2023-07-31T07:02:48;10.20;;;5.07;;
40993;SDS011;26722;43.212;27.932;2023-07-31T07:05:14;9.20;;;4.50;;
40993;SDS011;26722;43.212;27.932;2023-07-31T07:07:40;12.95;;;4.45;;
40993;SDS011;26722;43.212;27.932;2023-07-31T07:10:06;10.75;;;5.72;;
40993;SDS011;26722;43.212;27.932;2023-07-31T07:12:32;14.77;;;5.20;;
40993;SDS011;26722;43.212;27.932;2023-07-31T07:14:59;11.13;;;6.50;;
40993;SDS011;26722;43.212;27.932;2023-07-31T07:17:25;9.07;;;4.85;;
40993;SDS011;26722;43.212;27.932;2023-07-31T07:19:51;9.88;;;4.70;;
40993;SDS011;26722;43.212;27.932;2023-07-31T07:22:16;10.35;;;6.35;;
40993;SDS011;26722;43.212;27.932;2023-07-31T07:24:42;7.68;;;5.35;;
40993;SDS011;26722;43.212;27.932;2023-07-31T07:27:08;6.57;;;4.90;;
40993;SDS011;26722;43.212;27.932;2023-07-31T07:29:34;10.27;;;4.75;;
40993;SDS011;26722;43.212;27.932;2023-07-31T07:32:01;11.55;;;4.90;;
40993;SDS011;26722;43.212;27.932;2023-07-31T07:34:27;7.82;;;5.00;;
40993;SDS011;26722;43.212;27.932;2023-07-31T07:36:53;15.18;;;5.43;;
40993;SDS011;26722;43.212;27.932;2023-07-31T07:39:19;8.07;;;4.72;;
40993;SDS011;26722;43.212;27.932;2023-07-31T07:41:45;10.40;;;4.55;;
40993;SDS011;26722;43.212;27.932;2023-07-31T07:44:11;10.50;;;4.63;;
40993;SDS011;26722;43.212;27.932;2023-07-31T07:46:37;9.77;;;5.20;;
40993;SDS011;26722;43.212;27.932;2023-07-31T07:49:02;10.43;;;5.03;;
40993;SDS011;26722;43.212;27.932;2023-07-31T07:51:28;9.25;;;4.68;;
40993;SDS011;26722;43.212;27.932;2023-07-31T07:53:55;9.02;;;4.80;;
40993;SDS011;26722;43.212;27.932;2023-07-31T07:56:21;14.18;;;4.97;;
40993;SDS011;26722;43.212;27.932;2023-07-31T07:58:48;7.30;;;4.85;;
40993;SDS011;26722;43.212;27.932;2023-07-31T08:01:15;12.60;;;5.28;;
40993;SDS011;26722;43.212;27.932;2023-07-31T08:03:40;11.43;;;5.40;;
40993;SDS011;26722;43.212;27.932;2023-07-31T08:06:06;9.57;;;5.28;;
40993;SDS011;26722;43.212;27.932;2023-07-31T08:08:33;9.43;;;5.38;;
40993;SDS011;26722;43.212;27.932;2023-07-31T08:10:58;13.57;;;5.22;;
40993;SDS011;26722;43.212;27.932;2023-07-31T08:13:24;7.78;;;4.90;;
40993;SDS011;26722;43.212;27.932;2023-07-31T08:15:49;5.40;;;4.43;;
40993;SDS011;26722;43.212;27.932;2023-07-31T08:18:14;5.68;;;3.72;;
40993;SDS011;26722;43.212;27.932;2023-07-31T08:20:40;3.90;;;3.50;;
40993;SDS011;26722;43.212;27.932;2023-07-31T08:23:06;4.28;;;3.47;;
40993;SDS011;26722;43.212;27.932;2023-07-31T08:25:34;7.07;;;4.00;;
40993;SDS011;26722;43.212;27.932;2023-07-31T08:28:00;4.60;;;3.65;;
40993;SDS011;26722;43.212;27.932;2023-07-31T08:30:26;10.05;;;5.10;;
40993;SDS011;26722;43.212;27.932;2023-07-31T08:32:51;10.50;;;5.10;;
40993;SDS011;26722;43.212;27.932;2023-07-31T08:35:16;8.38;;;5.75;;
40993;SDS011;26722;43.212;27.932;2023-07-31T08:37:42;9.55;;;5.18;;
40993;SDS011;26722;43.212;27.932;2023-07-31T08:40:07;7.43;;;4.57;;
40993;SDS011;26722;43.212;27.932;2023-07-31T08:42:33;5.95;;;4.13;;
40993;SDS011;26722;43.212;27.932;2023-07-31T08:44:59;10.55;;;4.30;;
40993;SDS011;26722;43.212;27.932;2023-07-31T08:47:26;7.25;;;3.83;;
40993;SDS011;26722;43.212;27.932;2023-07-31T08:49:53;6.80;;;3.80;;
40993;SDS011;26722;43.212;27.932;2023-07-31T08:52:20;10.35;;;4.60;;
40993;SDS011;26722;43.212;27.932;2023-07-31T08:54:46;6.22;;;3.28;;
40993;SDS011;26722;43.212;27.932;2023-07-31T08:57:11;8.55;;;3.70;;
40993;SDS011;26722;43.212;27.932;2023-07-31T08:59:37;7.55;;;3.55;;
40993;SDS011;26722;43.212;27.932;2023-07-31T09:02:07;4.47;;;3.25;;
40993;SDS011;26722;43.212;27.932;2023-07-31T09:04:33;8.63;;;4.13;;
40993;SDS011;26722;43.212;27.932;2023-07-31T09:07:00;6.60;;;4.05;;
40993;SDS011;26722;43.212;27.932;2023-07-31T09:09:28;5.38;;;3.47;;
40993;SDS011;26722;43.212;27.932;2023-07-31T09:11:54;6.75;;;3.50;;
40993;SDS011;26722;43.212;27.932;2023-07-31T09:14:20;5.15;;;3.65;;
40993;SDS011;26722;43.212;27.932;2023-07-31T09:16:53;11.50;;;4.22;;
40993;SDS011;26722;43.212;27.932;2023-07-31T09:19:32;5.25;;;4.40;;
40993;SDS011;26722;43.212;27.932;2023-07-31T09:21:59;7.00;;;3.83;;
40993;SDS011;26722;43.212;27.932;2023-07-31T09:24:26;6.50;;;4.03;;
40993;SDS011;26722;43.212;27.932;2023-07-31T09:26:56;5.35;;;3.53;;
40993;SDS011;26722;43.212;27.932;2023-07-31T09:29:23;5.22;;;3.30;;
40993;SDS011;26722;43.212;27.932;2023-07-31T09:31:50;7.85;;;4.28;;
40993;SDS011;26722;43.212;27.932;2023-07-31T09:34:15;6.90;;;4.00;;
40993;SDS011;26722;43.212;27.932;2023-07-31T09:36:45;4.30;;;3.80;;
40993;SDS011;26722;43.212;27.932;2023-07-31T09:39:15;4.97;;;3.70;;
40993;SDS011;26722;43.212;27.932;2023-07-31T09:41:53;4.93;;;3.47;;
40993;SDS011;26722;43.212;27.932;2023-07-31T09:44:19;5.07;;;3.53;;
40993;SDS011;26722;43.212;27.932;2023-07-31T09:46:45;6.78;;;5.25;;
40993;SDS011;26722;43.212;27.932;2023-07-31T09:49:11;9.85;;;3.85;;
40993;SDS011;26722;43.212;27.932;2023-07-31T09:51:38;6.88;;;3.40;;
40993;SDS011;26722;43.212;27.932;2023-07-31T09:56:46;5.53;;;3.20;;
40993;SDS011;26722;43.212;27.932;2023-07-31T09:59:17;11.73;;;3.35;;
40993;SDS011;26722;43.212;27.932;2023-07-31T10:01:44;6.07;;;3.58;;
40993;SDS011;26722;43.212;27.932;2023-07-31T10:04:11;7.25;;;3.80;;
40993;SDS011;26722;43.212;27.932;2023-07-31T10:06:38;6.82;;;3.80;;
40993;SDS011;26722;43.212;27.932;2023-07-31T10:09:05;6.95;;;4.18;;
40993;SDS011;26722;43.212;27.932;2023-07-31T10:11:42;3.75;;;2.78;;
40993;SDS011;26722;43.212;27.932;2023-07-31T10:14:15;4.35;;;2.92;;
40993;SDS011;26722;43.212;27.932;2023-07-31T10:16:44;3.92;;;3.35;;
40993;SDS011;26722;43.212;27.932;2023-07-31T10:19:10;11.32;;;3.80;;
40993;SDS011;26722;43.212;27.932;2023-07-31T10:21:36;8.30;;;3.63;;
40993;SDS011;26722;43.212;27.932;2023-07-31T10:24:03;6.22;;;3.85;;
40993;SDS011;26722;43.212;27.932;2023-07-31T10:26:29;7.53;;;3.47;;
40993;SDS011;26722;43.212;27.932;2023-07-31T10:28:56;6.60;;;3.47;;
40993;SDS011;26722;43.212;27.932;2023-07-31T10:31:23;5.22;;;3.60;;
40993;SDS011;26722;43.212;27.932;2023-07-31T10:33:50;5.93;;;4.00;;
40993;SDS011;26722;43.212;27.932;2023-07-31T10:36:18;4.57;;;3.60;;
40993;SDS011;26722;43.212;27.932;2023-07-31T10:38:44;4.82;;;3.80;;
40993;SDS011;26722;43.212;27.932;2023-07-31T10:41:10;4.20;;;3.80;;
40993;SDS011;26722;43.212;27.932;2023-07-31T10:43:38;10.13;;;4.78;;
40993;SDS011;26722;43.212;27.932;2023-07-31T10:46:08;8.48;;;4.13;;
40993;SDS011;26722;43.212;27.932;2023-07-31T10:48:40;5.22;;;3.65;;
40993;SDS011;26722;43.212;27.932;2023-07-31T10:51:09;7.10;;;4.45;;
40993;SDS011;26722;43.212;27.932;2023-07-31T10:53:37;4.72;;;3.47;;
40993;SDS011;26722;43.212;27.932;2023-07-31T10:56:07;10.50;;;3.97;;
40993;SDS011;26722;43.212;27.932;2023-07-31T10:58:34;6.10;;;3.63;;
40993;SDS011;26722;43.212;27.932;2023-07-31T11:01:04;4.20;;;3.80;;
40993;SDS011;26722;43.212;27.932;2023-07-31T11:03:50;4.75;;;3.30;;
40993;SDS011;26722;43.212;27.932;2023-07-31T11:06:18;4.95;;;3.83;;
40993;SDS011;26722;43.212;27.932;2023-07-31T11:08:47;6.32;;;3.47;;
40993;SDS011;26722;43.212;27.932;2023-07-31T11:11:15;3.95;;;3.55;;
40993;SDS011;26722;43.212;27.932;2023-07-31T11:13:46;6.00;;;3.80;;
40993;SDS011;26722;43.212;27.932;2023-07-31T11:16:19;6.22;;;4.07;;
40993;SDS011;26722;43.212;27.932;2023-07-31T11:18:46;5.10;;;4.47;;
40993;SDS011;26722;43.212;27.932;2023-07-31T11:21:14;4.57;;;3.50;;
40993;SDS011;26722;43.212;27.932;2023-07-31T11:23:48;6.13;;;3.92;;
40993;SDS011;26722;43.212;27.932;2023-07-31T11:26:15;6.28;;;3.67;;
40993;SDS011;26722;43.212;27.932;2023-07-31T11:28:41;7.65;;;4.35;;
40993;SDS011;26722;43.212;27.932;2023-07-31T11:31:10;5.78;;;3.80;;
40993;SDS011;26722;43.212;27.932;2023-07-31T11:33:36;6.25;;;3.58;;
40993;SDS011;26722;43.212;27.932;2023-07-31T11:36:01;5.72;;;3.58;;
40993;SDS011;26722;43.212;27.932;2023-07-31T11:38:28;3.88;;;3.30;;
40993;SDS011;26722;43.212;27.932;2023-07-31T11:41:02;4.47;;;3.17;;
40993;SDS011;26722;43.212;27.932;2023-07-31T11:43:28;4.47;;;3.10;;
40993;SDS011;26722;43.212;27.932;2023-07-31T11:45:56;3.55;;;3.05;;
40993;SDS011;26722;43.212;27.932;2023-07-31T11:48:24;3.85;;;3.15;;
40993;SDS011;26722;43.212;27.932;2023-07-31T11:50:52;7.82;;;3.10;;
40993;SDS011;26722;43.212;27.932;2023-07-31T11:53:24;8.07;;;3.60;;
40993;SDS011;26722;43.212;27.932;2023-07-31T11:55:53;5.45;;;3.30;;
40993;SDS011;26722;43.212;27.932;2023-07-31T11:58:19;5.28;;;3.22;;
40993;SDS011;26722;43.212;27.932;2023-07-31T12:00:46;3.58;;;3.20;;
40993;SDS011;26722;43.212;27.932;2023-07-31T12:03:13;4.60;;;3.45;;
40993;SDS011;26722;43.212;27.932;2023-07-31T12:05:38;6.32;;;3.38;;
40993;SDS011;26722;43.212;27.932;2023-07-31T12:08:13;5.65;;;3.60;;
40993;SDS011;26722;43.212;27.932;2023-07-31T12:13:12;5.65;;;4.03;;
40993;SDS011;26722;43.212;27.932;2023-07-31T12:15:46;6.45;;;4.07;;
40993;SDS011;26722;43.212;27.932;2023-07-31T12:18:12;6.70;;;4.13;;
40993;SDS011;26722;43.212;27.932;2023-07-31T12:20:43;7.15;;;4.47;;
40993;SDS011;26722;43.212;27.932;2023-07-31T12:23:14;5.60;;;4.32;;
40993;SDS011;26722;43.212;27.932;2023-07-31T12:25:44;5.72;;;3.90;;
40993;SDS011;26722;43.212;27.932;2023-07-31T12:28:10;9.10;;;4.22;;
40993;SDS011;26722;43.212;27.932;2023-07-31T12:30:39;14.02;;;4.65;;
40993;SDS011;26722;43.212;27.932;2023-07-31T12:33:06;10.98;;;4.93;;
40993;SDS011;26722;43.212;27.932;2023-07-31T12:35:37;22.08;;;5.07;;
40993;SDS011;26722;43.212;27.932;2023-07-31T12:38:05;9.43;;;4.80;;
40993;SDS011;26722;43.212;27.932;2023-07-31T12:40:31;8.85;;;4.57;;
40993;SDS011;26722;43.212;27.932;2023-07-31T12:42:57;13.60;;;5.03;;
40993;SDS011;26722;43.212;27.932;2023-07-31T12:45:22;9.07;;;4.72;;
40993;SDS011;26722;43.212;27.932;2023-07-31T12:47:48;8.60;;;4.53;;
40993;SDS011;26722;43.212;27.932;2023-07-31T12:50:14;10.27;;;5.40;;
40993;SDS011;26722;43.212;27.932;2023-07-31T12:52:39;6.18;;;4.95;;
40993;SDS011;26722;43.212;27.932;2023-07-31T12:55:04;6.78;;;4.03;;
40993;SDS011;26722;43.212;27.932;2023-07-31T12:57:30;6.60;;;4.20;;
40993;SDS011;26722;43.212;27.932;2023-07-31T12:59:56;6.40;;;4.22;;
40993;SDS011;26722;43.212;27.932;2023-07-31T13:02:21;6.45;;;4.13;;
40993;SDS011;26722;43.212;27.932;2023-07-31T13:04:47;5.18;;;4.45;;
40993;SDS011;26722;43.212;27.932;2023-07-31T13:07:14;5.88;;;4.35;;
40993;SDS011;26722;43.212;27.932;2023-07-31T13:09:39;7.15;;;4.03;;
40993;SDS011;26722;43.212;27.932;2023-07-31T13:12:05;6.22;;;4.50;;
40993;SDS011;26722;43.212;27.932;2023-07-31T13:14:30;6.60;;;4.45;;
40993;SDS011;26722;43.212;27.932;2023-07-31T13:16:56;5.43;;;3.78;;
40993;SDS011;26722;43.212;27.932;2023-07-31T13:19:21;8.70;;;4.13;;
40993;SDS011;26722;43.212;27.932;2023-07-31T13:21:47;4.05;;;3.40;;
40993;SDS011;26722;43.212;27.932;2023-07-31T13:24:12;8.80;;;4.32;;
40993;SDS011;26722;43.212;27.932;2023-07-31T13:26:38;6.47;;;3.90;;
40993;SDS011;26722;43.212;27.932;2023-07-31T13:29:03;10.98;;;3.92;;
40993;SDS011;26722;43.212;27.932;2023-07-31T13:31:29;5.32;;;3.40;;
40993;SDS011;26722;43.212;27.932;2023-07-31T13:33:54;11.77;;;4.07;;
40993;SDS011;26722;43.212;27.932;2023-07-31T13:36:19;4.97;;;3.55;;
40993;SDS011;26722;43.212;27.932;2023-07-31T13:38:45;4.10;;;3.20;;
40993;SDS011;26722;43.212;27.932;2023-07-31T13:41:10;4.63;;;3.70;;
40993;SDS011;26722;43.212;27.932;2023-07-31T13:43:36;4.28;;;3.25;;
40993;SDS011;26722;43.212;27.932;2023-07-31T13:46:01;6.15;;;3.90;;
40993;SDS011;26722;43.212;27.932;2023-07-31T13:48:31;6.35;;;3.75;;
40993;SDS011;26722;43.212;27.932;2023-07-31T13:50:59;4.53;;;3.53;;
40993;SDS011;26722;43.212;27.932;2023-07-31T13:53:25;5.00;;;3.50;;
40993;SDS011;26722;43.212;27.932;2023-07-31T13:55:50;6.55;;;3.95;;
40993;SDS011;26722;43.212;27.932;2023-07-31T13:58:16;4.72;;;3.53;;
40993;SDS011;26722;43.212;27.932;2023-07-31T14:00:42;8.25;;;4.05;;
40993;SDS011;26722;43.212;27.932;2023-07-31T14:03:07;5.70;;;4.03;;
40993;SDS011;26722;43.212;27.932;2023-07-31T14:05:33;6.03;;;4.20;;
40993;SDS011;26722;43.212;27.932;2023-07-31T14:07:58;6.90;;;4.10;;
40993;SDS011;26722;43.212;27.932;2023-07-31T14:10:24;8.20;;;4.50;;
40993;SDS011;26722;43.212;27.932;2023-07-31T14:12:49;6.95;;;4.82;;
40993;SDS011;26722;43.212;27.932;2023-07-31T14:15:15;7.97;;;4.97;;
40993;SDS011;26722;43.212;27.932;2023-07-31T14:17:40;5.35;;;4.72;;
40993;SDS011;26722;43.212;27.932;2023-07-31T14:20:06;5.10;;;4.60;;
40993;SDS011;26722;43.212;27.932;2023-07-31T14:22:32;6.88;;;4.93;;
40993;SDS011;26722;43.212;27.932;2023-07-31T14:24:59;6.50;;;5.10;;
40993;SDS011;26722;43.212;27.932;2023-07-31T14:27:24;6.05;;;5.05;;
40993;SDS011;26722;43.212;27.932;2023-07-31T14:29:50;9.25;;;4.93;;
40993;SDS011;26722;43.212;27.932;2023-07-31T14:32:15;9.73;;;5.07;;
40993;SDS011;26722;43.212;27.932;2023-07-31T14:34:41;5.03;;;4.30;;
40993;SDS011;26722;43.212;27.932;2023-07-31T14:37:06;4.40;;;3.97;;